Time;durP1;ratioP1;P1;durP2;ratioP2;P2;SDS_P1;SDS_P2;PMS_P1;PMS_P2;Temp;Humidity;BMP_temperature;BMP_pressure;BME280_temperature;BME280_humidity;BME280_pressure;Samples;Min_cycle;Max_cycle;Signal;HPM_P1;HPM_P2
2023/04/26 00:01:22;;;;;;;6.75;2.83;;;3.50;99.90;;;;;;5073293;28;20040;-80
2023/04/26 00:03:48;;;;;;;4.43;2.53;;;3.50;99.90;;;;;;5073450;28;20374;-80
2023/04/26 00:06:15;;;;;;;11.37;3.00;;;3.40;99.90;;;;;;5073816;28;20047;-81
2023/04/26 00:08:41;;;;;;;4.35;2.28;;;3.40;99.90;;;;;;5073928;28;20286;-81
2023/04/26 00:11:06;;;;;;;5.78;2.80;;;3.40;99.90;;;;;;5074256;28;20067;-83
2023/04/26 00:13:32;;;;;;;6.45;2.55;;;3.30;99.90;;;;;;5073573;28;20472;-80
2023/04/26 00:15:57;;;;;;;6.63;2.38;;;3.50;99.90;;;;;;5073657;28;20115;-82
2023/04/26 00:18:23;;;;;;;6.03;2.42;;;3.20;99.90;;;;;;5073551;28;20040;-82
2023/04/26 00:20:49;;;;;;;5.00;2.63;;;3.20;99.90;;;;;;5074108;28;20075;-82
2023/04/26 00:23:14;;;;;;;7.22;2.65;;;3.10;99.90;;;;;;5073615;28;20138;-82
2023/04/26 00:25:40;;;;;;;7.50;2.75;;;3.10;99.90;;;;;;5073610;28;20048;-81
2023/04/26 00:28:06;;;;;;;3.80;2.33;;;3.10;99.90;;;;;;5073714;28;20098;-80
2023/04/26 00:30:33;;;;;;;6.43;2.83;;;3.10;99.90;;;;;;5073493;28;20063;-81
2023/04/26 00:32:58;;;;;;;;;;;3.00;99.90;;;;;;5072939;28;20056;-80
2023/04/26 00:35:24;;;;;;;3.80;2.25;;;4.00;99.90;;;;;;5073968;28;19921;-80
2023/04/26 00:37:50;;;;;;;3.45;2.03;;;3.00;99.90;;;;;;5073446;28;20043;-81
2023/04/26 00:40:16;;;;;;;8.15;2.63;;;2.90;99.90;;;;;;5073141;28;20055;-80
2023/04/26 00:42:41;;;;;;;8.60;2.67;;;2.90;99.90;;;;;;5073411;28;20048;-81
2023/04/26 00:45:07;;;;;;;8.93;2.70;;;2.90;99.90;;;;;;5072059;28;20083;-82
2023/04/26 00:47:34;;;;;;;4.10;2.43;;;2.90;99.90;;;;;;5073074;28;20500;-81
2023/04/26 00:50:00;;;;;;;5.68;2.70;;;2.90;99.90;;;;;;5073696;28;20110;-81
2023/04/26 00:52:27;;;;;;;4.32;2.75;;;2.80;99.90;;;;;;5073365;28;20139;-81
2023/04/26 00:54:53;;;;;;;8.25;3.05;;;2.90;99.90;;;;;;5073574;28;20048;-82
2023/04/26 00:57:20;;;;;;;8.80;3.07;;;2.90;99.90;;;;;;5073243;28;20037;-80
2023/04/26 00:59:46;;;;;;;9.70;3.08;;;3.80;99.90;;;;;;5073251;28;20102;-81
2023/04/26 01:02:12;;;;;;;6.93;2.88;;;3.70;99.90;;;;;;5073132;28;20040;-81
2023/04/26 01:04:40;;;;;;;8.82;3.15;;;2.90;99.90;;;;;;5073209;28;20044;-81
2023/04/26 01:07:07;;;;;;;9.63;2.83;;;2.90;99.90;;;;;;5073582;28;20075;-81
2023/04/26 01:09:33;;;;;;;4.88;2.63;;;2.90;99.90;;;;;;5073149;28;20515;-83
2023/04/26 01:11:59;;;;;;;8.87;3.17;;;3.00;99.90;;;;;;5073219;28;20036;-81
2023/04/26 01:14:26;;;;;;;7.90;2.30;;;3.00;99.90;;;;;;5076430;28;20419;-81
2023/04/26 01:16:52;;;;;;;6.93;2.53;;;3.10;99.90;;;;;;5076654;28;20504;-80
2023/04/26 01:19:17;;;;;;;5.00;2.80;;;3.10;99.90;;;;;;5076825;28;20123;-82
2023/04/26 01:21:43;;;;;;;7.95;3.05;;;3.20;99.90;;;;;;5076705;28;20049;-81
2023/04/26 01:24:10;;;;;;;9.15;2.90;;;3.30;99.90;;;;;;5076719;28;20511;-81
2023/04/26 01:26:42;;;;;;;;;;;3.30;99.90;;;;;;5076161;28;20080;-82
2023/04/26 01:29:23;;;;;;;6.40;2.92;;;3.30;99.90;;;;;;5075552;28;19927;-81
2023/04/26 01:31:48;;;;;;;9.02;2.70;;;3.40;99.90;;;;;;5077006;28;20131;-82
2023/04/26 01:34:14;;;;;;;7.28;2.70;;;3.40;99.90;;;;;;5076551;28;20140;-82
2023/04/26 01:36:40;;;;;;;3.97;2.40;;;3.40;99.90;;;;;;5076879;28;20046;-80
2023/04/26 01:39:07;;;;;;;8.80;2.97;;;3.40;99.90;;;;;;5075500;28;20435;-81
2023/04/26 01:41:33;;;;;;;7.07;2.80;;;3.40;99.90;;;;;;5076378;28;20059;-81
2023/04/26 01:43:59;;;;;;;5.35;2.97;;;3.40;99.90;;;;;;5075364;28;20392;-81
2023/04/26 01:46:25;;;;;;;6.55;2.70;;;3.30;99.90;;;;;;5075108;28;20427;-80
2023/04/26 01:48:50;;;;;;;4.50;2.50;;;3.30;99.90;;;;;;5076183;28;20066;-80
2023/04/26 01:51:16;;;;;;;4.93;2.83;;;;;;;;;;5076542;28;20045;-80
2023/04/26 01:53:42;;;;;;;9.55;2.88;;;3.30;99.90;;;;;;5076009;28;20048;-81
2023/04/26 01:56:08;;;;;;;9.43;3.13;;;3.30;99.90;;;;;;5074973;28;20378;-82
2023/04/26 01:58:33;;;;;;;5.13;2.85;;;3.20;99.90;;;;;;5075827;28;20047;-81
2023/04/26 02:01:07;;;;;;;6.30;2.55;;;3.20;99.90;;;;;;5075704;28;20048;-80
2023/04/26 02:03:33;;;;;;;8.88;2.83;;;3.20;99.90;;;;;;5075770;28;20480;-80
2023/04/26 02:05:58;;;;;;;7.55;3.75;;;3.10;99.90;;;;;;5075146;28;20063;-81
2023/04/26 02:08:24;;;;;;;5.05;2.65;;;3.10;99.90;;;;;;5058051;28;20480;-82
2023/04/26 02:10:50;;;;;;;5.47;2.30;;;3.10;99.90;;;;;;5058274;28;20050;-81
2023/04/26 02:13:15;;;;;;;4.45;2.55;;;3.00;99.90;;;;;;5075723;28;20045;-81
2023/04/26 02:15:45;;;;;;;9.88;2.90;;;3.00;99.90;;;;;;5075745;28;20037;-81
2023/04/26 02:18:11;;;;;;;4.20;2.63;;;2.90;99.90;;;;;;5074499;28;20045;-82
2023/04/26 02:20:42;;;;;;;8.53;3.20;;;2.90;99.90;;;;;;5075787;28;20127;-80
2023/04/26 02:23:08;;;;;;;6.03;2.75;;;2.90;99.90;;;;;;5075675;28;20271;-82
2023/04/26 02:25:33;;;;;;;10.07;3.00;;;2.80;99.90;;;;;;5074860;28;20084;-82
2023/04/26 02:28:00;;;;;;;6.97;2.40;;;2.80;99.90;;;;;;5075460;28;20306;-81
2023/04/26 02:30:26;;;;;;;8.95;2.70;;;2.80;99.90;;;;;;5075349;28;20044;-81
2023/04/26 02:32:55;;;;;;;5.88;2.33;;;2.70;99.90;;;;;;5074433;28;20048;-81
2023/04/26 02:35:21;;;;;;;4.22;2.30;;;2.70;99.90;;;;;;5074588;28;20373;-81
2023/04/26 02:37:47;;;;;;;6.60;2.92;;;2.70;99.90;;;;;;5075508;28;20037;-81
2023/04/26 02:40:14;;;;;;;11.38;2.78;;;2.70;99.90;;;;;;5075724;28;20037;-81
2023/04/26 02:42:39;;;;;;;9.35;2.42;;;2.70;99.90;;;;;;5074133;28;20152;-81
2023/04/26 02:45:06;;;;;;;5.85;2.50;;;2.70;99.90;;;;;;5075386;28;20048;-81
2023/04/26 02:47:32;;;;;;;11.15;2.70;;;2.70;99.90;;;;;;5075233;28;20051;-80
2023/04/26 02:49:58;;;;;;;8.48;2.63;;;2.80;99.90;;;;;;5074949;28;20057;-80
2023/04/26 02:52:23;;;;;;;7.18;2.83;;;2.80;99.90;;;;;;5074951;28;20056;-80
2023/04/26 02:54:49;;;;;;;5.82;2.60;;;2.90;99.90;;;;;;5075155;28;20052;-81
2023/04/26 02:57:14;;;;;;;10.23;2.72;;;2.90;99.90;;;;;;5073963;28;20396;-81
2023/04/26 02:59:40;;;;;;;9.23;2.60;;;3.00;99.90;;;;;;5074825;28;20127;-81
2023/04/26 03:02:06;;;;;;;6.55;2.35;;;3.00;99.90;;;;;;5074987;28;20048;-81
2023/04/26 03:04:34;;;;;;;6.90;2.70;;;3.00;99.90;;;;;;5075145;28;20156;-81
2023/04/26 03:07:02;;;;;;;10.27;2.55;;;3.10;99.90;;;;;;5074651;28;20275;-81
2023/04/26 03:09:28;;;;;;;7.85;2.60;;;3.10;99.90;;;;;;5073582;28;20091;-81
2023/04/26 03:11:53;;;;;;;8.20;2.67;;;3.10;99.90;;;;;;5074509;28;20472;-80
2023/04/26 03:14:19;;;;;;;4.80;2.22;;;3.00;99.90;;;;;;5074566;28;20049;-82
2023/04/26 03:16:45;;;;;;;7.22;2.65;;;2.90;99.90;;;;;;5074464;28;20473;-81
2023/04/26 03:19:10;;;;;;;4.57;2.63;;;2.90;99.90;;;;;;5074336;28;20044;-80
2023/04/26 03:21:36;;;;;;;5.28;2.90;;;2.80;99.90;;;;;;5074403;28;20076;-80
2023/04/26 03:24:02;;;;;;;4.47;2.58;;;2.70;99.90;;;;;;5073375;28;20384;-82
2023/04/26 03:26:27;;;;;;;6.25;2.50;;;2.70;99.90;;;;;;5074316;28;20388;-80
2023/04/26 03:28:53;;;;;;;6.68;2.47;;;2.60;99.90;;;;;;5073340;28;20044;-81
2023/04/26 03:31:20;;;;;;;4.72;2.78;;;2.60;99.90;;;;;;5074389;28;20033;-80
2023/04/26 03:33:46;;;;;;;8.77;2.83;;;2.50;99.90;;;;;;5073180;28;20060;-80
2023/04/26 03:36:11;;;;;;;6.63;2.75;;;2.60;99.90;;;;;;5073983;28;20040;-81
2023/04/26 03:38:37;;;;;;;9.80;3.13;;;2.40;99.90;;;;;;5074114;28;20469;-81
2023/04/26 03:41:03;;;;;;;7.90;3.50;;;2.40;99.90;;;;;;5074059;28;20043;-82
2023/04/26 03:43:28;;;;;;;8.07;2.78;;;2.40;99.90;;;;;;5073956;28;20041;-81
2023/04/26 03:45:54;;;;;;;5.38;2.80;;;2.30;99.90;;;;;;5072893;28;20173;-82
2023/04/26 03:48:20;;;;;;;8.98;3.10;;;2.30;99.90;;;;;;5073150;28;20151;-81
2023/04/26 03:50:46;;;;;;;5.35;2.50;;;2.20;99.90;;;;;;5074119;28;20056;-80
2023/04/26 03:53:11;;;;;;;6.47;2.55;;;2.20;99.90;;;;;;5073649;28;20045;-81
2023/04/26 03:55:37;;;;;;;8.38;2.65;;;2.10;99.90;;;;;;5073599;28;20041;-81
2023/04/26 03:58:06;;;;;;;6.85;2.97;;;2.10;99.90;;;;;;5073824;28;20123;-82
2023/04/26 04:00:36;;;;;;;9.40;2.75;;;2.00;99.90;;;;;;5073755;28;20094;-81
2023/04/26 04:03:01;;;;;;;4.07;2.72;;;2.00;99.90;;;;;;5073863;28;20044;-80
2023/04/26 04:05:27;;;;;;;6.72;2.55;;;2.00;99.90;;;;;;5073026;28;20067;-80
2023/04/26 04:07:53;;;;;;;3.83;2.63;;;2.00;99.90;;;;;;5073925;28;20119;-81
2023/04/26 04:10:18;;;;;;;5.05;3.03;;;2.00;99.90;;;;;;5072846;28;20115;-80
2023/04/26 04:12:44;;;;;;;5.38;2.97;;;1.90;99.90;;;;;;5074449;28;20152;-81
2023/04/26 04:15:10;;;;;;;5.25;2.53;;;1.90;99.90;;;;;;5072895;28;20080;-80
2023/04/26 04:17:35;;;;;;;5.68;2.85;;;1.90;99.90;;;;;;5073587;28;20094;-81
2023/04/26 04:20:04;;;;;;;9.13;3.17;;;1.90;99.90;;;;;;5073565;28;20041;-82
2023/04/26 04:22:29;;;;;;;7.88;2.83;;;1.80;99.90;;;;;;5073656;28;20051;-81
2023/04/26 04:24:56;;;;;;;6.90;3.30;;;1.80;99.90;;;;;;5073626;28;20045;-81
2023/04/26 04:27:21;;;;;;;6.68;2.78;;;1.80;99.90;;;;;;5073506;28;20128;-81
2023/04/26 04:29:47;;;;;;;11.52;3.00;;;1.80;99.90;;;;;;5073534;28;20137;-81
2023/04/26 04:32:14;;;;;;;6.78;3.33;;;1.80;99.90;;;;;;5073329;28;20037;-82
2023/04/26 04:34:40;;;;;;;6.90;2.53;;;2.70;99.90;;;;;;5072731;28;20033;-81
2023/04/26 04:37:06;;;;;;;6.57;2.65;;;1.80;99.90;;;;;;5073774;28;20051;-80
2023/04/26 04:39:31;;;;;;;5.80;2.55;;;1.80;99.90;;;;;;5073609;28;20037;-81
2023/04/26 04:41:57;;;;;;;7.03;2.80;;;1.90;99.90;;;;;;5074180;28;20048;-81
2023/04/26 04:44:25;;;;;;;6.20;2.53;;;1.80;99.90;;;;;;5074151;28;20045;-81
2023/04/26 04:46:51;;;;;;;4.43;2.78;;;1.80;99.90;;;;;;5073622;28;20098;-82
2023/04/26 04:49:17;;;;;;;5.60;2.47;;;1.80;99.90;;;;;;5075553;28;20057;-82
2023/04/26 04:51:43;;;;;;;7.43;2.70;;;1.80;99.90;;;;;;5077536;28;20053;-81
2023/04/26 04:54:14;;;;;;;7.72;2.88;;;1.90;99.90;;;;;;5077169;28;20044;-80
2023/04/26 04:56:40;;;;;;;7.28;2.70;;;1.90;99.90;;;;;;5076061;28;20048;-78
2023/04/26 04:59:06;;;;;;;7.82;3.65;;;1.90;99.90;;;;;;5077482;28;20494;-83
2023/04/26 05:01:32;;;;;;;8.20;3.13;;;2.00;99.90;;;;;;5075987;28;20426;-78
2023/04/26 05:03:58;;;;;;;3.92;2.70;;;2.00;99.90;;;;;;5076977;28;20045;-89
2023/04/26 05:06:24;;;;;;;7.65;2.42;;;2.00;99.90;;;;;;5076204;28;20040;-81
2023/04/26 05:08:50;;;;;;;7.07;3.05;;;2.90;99.90;;;;;;5077240;28;20084;-81
2023/04/26 05:11:16;;;;;;;5.47;3.08;;;2.00;99.90;;;;;;5077279;28;20070;-80
2023/04/26 05:13:41;;;;;;;9.90;2.60;;;2.00;99.90;;;;;;5076466;28;20376;-81
2023/04/26 05:16:07;;;;;;;7.82;2.88;;;2.10;99.90;;;;;;5077129;28;20173;-81
2023/04/26 05:18:32;;;;;;;4.40;2.40;;;1.90;99.90;;;;;;5076852;28;20043;-83
2023/04/26 05:20:58;;;;;;;4.28;2.78;;;2.20;99.90;;;;;;5059668;28;20481;-83
2023/04/26 05:23:24;;;;;;;5.35;2.65;;;2.20;99.90;;;;;;5075804;28;20484;-81
2023/04/26 05:25:49;;;;;;;10.98;3.33;;;2.20;99.90;;;;;;5075859;28;20045;-86
2023/04/26 05:28:16;;;;;;;7.53;2.92;;;2.20;99.90;;;;;;5075641;28;20048;-86
2023/04/26 05:30:42;;;;;;;4.73;3.10;;;2.20;99.90;;;;;;5059306;28;20052;-85
2023/04/26 05:33:07;;;;;;;7.63;2.90;;;2.30;99.90;;;;;;5075443;28;20561;-85
2023/04/26 05:35:34;;;;;;;7.53;3.38;;;2.40;99.90;;;;;;5059209;28;20183;-86
2023/04/26 05:37:59;;;;;;;3.95;2.65;;;2.50;99.90;;;;;;5075093;28;20127;-84
2023/04/26 05:40:25;;;;;;;6.43;2.88;;;2.70;99.90;;;;;;5058761;28;20075;-80
2023/04/26 05:42:51;;;;;;;7.47;2.47;;;2.80;99.90;;;;;;5075445;28;20044;-82
2023/04/26 05:45:17;;;;;;;5.97;3.40;;;2.80;99.90;;;;;;5075173;28;20098;-82
2023/04/26 05:47:42;;;;;;;7.47;3.23;;;2.90;99.90;;;;;;5076237;28;20048;-82
2023/04/26 05:50:08;;;;;;;7.68;2.72;;;3.10;99.90;;;;;;5075196;28;20110;-81
2023/04/26 05:52:34;;;;;;;5.90;2.83;;;3.20;99.90;;;;;;5075674;28;20166;-82
2023/04/26 05:55:03;;;;;;;9.02;3.45;;;3.30;99.90;;;;;;5075124;28;20504;-81
2023/04/26 05:57:29;;;;;;;6.60;2.80;;;3.40;99.90;;;;;;5075445;28;20495;-80
2023/04/26 05:59:55;;;;;;;8.85;2.97;;;3.50;99.90;;;;;;5075468;28;20045;-82
2023/04/26 06:02:20;;;;;;;7.75;3.08;;;3.60;99.90;;;;;;5074969;28;20037;-81
2023/04/26 06:04:46;;;;;;;7.28;2.50;;;3.70;99.90;;;;;;5076116;28;20090;-82
2023/04/26 06:07:11;;;;;;;6.40;2.97;;;5.40;99.90;;;;;;5074832;28;20044;-82
2023/04/26 06:09:37;;;;;;;10.52;3.33;;;3.90;99.90;;;;;;5075017;28;20052;-84
2023/04/26 06:12:03;;;;;;;8.98;2.92;;;4.10;99.90;;;;;;5056685;28;20048;-87
2023/04/26 06:14:29;;;;;;;9.40;3.13;;;4.10;99.90;;;;;;5075386;28;20455;-90
2023/04/26 06:16:55;;;;;;;8.10;3.13;;;4.20;99.90;;;;;;5056995;28;20141;-83
2023/04/26 06:19:21;;;;;;;5.07;3.08;;;4.30;99.90;;;;;;5075620;28;20044;-85
2023/04/26 06:21:47;;;;;;;5.82;2.85;;;4.40;99.90;;;;;;5074066;28;20047;-81
2023/04/26 06:24:13;;;;;;;4.90;2.83;;;4.40;99.90;;;;;;5075119;28;20119;-81
2023/04/26 06:26:39;;;;;;;6.87;2.77;;;4.50;99.90;;;;;;5074192;28;20403;-81
2023/04/26 06:29:05;;;;;;;4.43;2.67;;;4.60;99.90;;;;;;5075455;28;20279;-82
2023/04/26 06:31:31;;;;;;;5.15;2.78;;;4.80;99.90;;;;;;5075455;28;20058;-82
2023/04/26 06:33:57;;;;;;;8.15;2.90;;;4.90;99.90;;;;;;5075380;28;20040;-82
2023/04/26 06:36:23;;;;;;;5.97;2.47;;;5.00;99.90;;;;;;5075491;28;20048;-82
2023/04/26 06:38:48;;;;;;;8.27;3.22;;;5.20;99.90;;;;;;5073947;28;20372;-82
2023/04/26 06:41:14;;;;;;;4.07;2.45;;;5.70;99.90;;;;;;5075512;28;20051;-82
2023/04/26 06:43:40;;;;;;;7.45;3.00;;;5.70;99.90;;;;;;5072533;28;20397;-75
2023/04/26 06:46:06;;;;;;;4.70;2.70;;;6.20;99.90;;;;;;5074771;28;20048;-81
2023/04/26 06:48:32;;;;;;;4.05;2.50;;;5.70;99.90;;;;;;5073672;28;20489;-80
2023/04/26 06:50:57;;;;;;;5.00;2.55;;;5.70;99.90;;;;;;5073404;28;20048;-81
2023/04/26 06:53:23;;;;;;;9.13;2.60;;;5.90;99.90;;;;;;5073884;28;20032;-87
2023/04/26 06:55:49;;;;;;;3.50;2.78;;;6.30;99.90;;;;;;5074362;28;20516;-87
2023/04/26 06:58:14;;;;;;;6.90;2.58;;;6.20;99.90;;;;;;5057391;28;20044;-87
2023/04/26 07:00:40;;;;;;;7.50;3.10;;;7.40;99.90;;;;;;5073804;28;20112;-87
2023/04/26 07:03:06;;;;;;;3.80;2.58;;;7.80;99.90;;;;;;5057419;28;20205;-87
2023/04/26 07:05:31;;;;;;;6.63;2.33;;;6.80;99.90;;;;;;5056860;28;20040;-82
2023/04/26 07:07:57;;;;;;;3.63;2.50;;;7.00;99.90;;;;;;5073160;28;20044;-83
2023/04/26 07:10:24;;;;;;;5.03;2.30;;;7.20;99.90;;;;;;5073905;28;20072;-83
2023/04/26 07:12:50;;;;;;;7.38;2.20;;;7.30;99.90;;;;;;5074406;28;20059;-82
2023/04/26 07:15:16;;;;;;;6.50;2.25;;;7.40;99.90;;;;;;5074193;28;20048;-82
2023/04/26 07:17:41;;;;;;;5.20;2.35;;;7.40;99.90;;;;;;5074374;28;20116;-81
2023/04/26 07:20:07;;;;;;;5.85;2.55;;;7.40;99.90;;;;;;5072996;28;20044;-86
2023/04/26 07:22:33;;;;;;;5.23;2.33;;;7.50;99.90;;;;;;5073164;28;20040;-79
2023/04/26 07:24:59;;;;;;;5.95;2.47;;;7.60;99.90;;;;;;5073827;28;20044;-79
2023/04/26 07:27:24;;;;;;;5.45;2.42;;;7.80;99.90;;;;;;5074149;28;20473;-83
2023/04/26 07:29:53;;;;;;;6.50;2.35;;;8.40;99.90;;;;;;5073204;28;20086;-82
2023/04/26 07:32:19;;;;;;;5.68;2.28;;;8.20;99.90;;;;;;5072945;28;20051;-80
2023/04/26 07:34:45;;;;;;;3.90;2.00;;;8.10;99.90;;;;;;5073237;28;20049;-79
2023/04/26 07:37:11;;;;;;;7.30;2.15;;;8.20;99.90;;;;;;5073791;28;20041;-88
2023/04/26 07:39:36;;;;;;;4.70;1.85;;;8.20;99.90;;;;;;5055802;28;20063;-84
2023/04/26 07:42:02;;;;;;;5.25;1.70;;;8.20;99.90;;;;;;5072586;28;20040;-81
2023/04/26 07:44:28;;;;;;;3.15;1.88;;;8.20;99.90;;;;;;5072119;28;20048;-81
2023/04/26 07:46:53;;;;;;;10.55;2.47;;;8.30;99.90;;;;;;5073976;28;20080;-81
2023/04/26 07:49:19;;;;;;;11.07;2.20;;;8.40;99.90;;;;;;5072459;28;20129;-81
2023/04/26 07:51:46;;;;;;;4.70;1.98;;;8.40;99.90;;;;;;5074023;28;20057;-80
2023/04/26 07:54:11;;;;;;;4.75;2.00;;;8.50;99.90;;;;;;5073183;28;20059;-80
2023/04/26 07:56:37;;;;;;;4.32;2.30;;;8.80;99.90;;;;;;5073508;28;20127;-81
2023/04/26 07:59:03;;;;;;;4.03;1.73;;;8.50;99.90;;;;;;5073739;28;20131;-81
2023/04/26 08:01:29;;;;;;;5.93;2.03;;;8.60;99.90;;;;;;5073586;28;20040;-80
2023/04/26 08:03:55;;;;;;;4.20;1.90;;;8.70;99.90;;;;;;5073540;28;20052;-80
2023/04/26 08:06:21;;;;;;;4.13;2.00;;;8.90;99.90;;;;;;5072309;28;20400;-80
2023/04/26 08:08:49;;;;;;;5.35;1.75;;;9.20;99.90;;;;;;5073475;28;20041;-81
2023/04/26 08:11:15;;;;;;;7.93;2.83;;;9.20;99.90;;;;;;5073450;28;20041;-81
2023/04/26 08:13:42;;;;;;;6.20;1.60;;;9.40;99.90;;;;;;5072528;28;20036;-81
2023/04/26 08:16:08;;;;;;;6.63;2.03;;;9.60;99.90;;;;;;5073570;28;20045;-80
2023/04/26 08:18:34;;;;;;;5.25;2.05;;;10.30;99.90;;;;;;5073410;28;20048;-80
2023/04/26 08:21:00;;;;;;;3.10;1.70;;;9.90;99.90;;;;;;5073474;28;20044;-80
2023/04/26 08:23:27;;;;;;;5.72;2.30;;;10.00;99.90;;;;;;5072646;28;20044;-80
2023/04/26 08:25:52;;;;;;;6.30;1.65;;;10.10;99.90;;;;;;5073316;28;20055;-81
2023/04/26 08:28:18;;;;;;;4.30;1.63;;;10.00;99.90;;;;;;5073314;28;20036;-81
2023/04/26 08:30:44;;;;;;;4.53;1.75;;;9.90;99.90;;;;;;5073443;28;20036;-80
2023/04/26 08:33:10;;;;;;;6.32;2.05;;;9.60;99.90;;;;;;5073390;28;20396;-80
2023/04/26 08:35:35;;;;;;;6.63;1.70;;;10.10;99.90;;;;;;5073397;28;20044;-80
2023/04/26 08:38:21;;;;;;;7.55;1.90;;;9.60;99.90;;;;;;5070336;28;20377;-80
2023/04/26 08:40:47;;;;;;;3.15;1.58;;;10.20;99.90;;;;;;5072111;28;20055;-80
2023/04/26 08:43:15;;;;;;;6.15;1.95;;;10.10;99.90;;;;;;5073163;28;20044;-88
2023/04/26 08:45:45;;;;;;;3.42;1.70;;;9.80;99.90;;;;;;5073325;28;20044;-81
2023/04/26 08:48:14;;;;;;;5.05;1.85;;;9.80;99.90;;;;;;5072023;28;20056;-80
2023/04/26 08:50:44;;;;;;;3.47;1.80;;;9.70;99.90;;;;;;5073209;28;20495;-81
2023/04/26 08:53:15;;;;;;;3.42;1.63;;;9.60;99.90;;;;;;5073066;28;20040;-82
2023/04/26 08:55:41;;;;;;;4.35;1.70;;;9.70;99.90;;;;;;5072879;28;20407;-82
2023/04/26 08:58:07;;;;;;;6.53;1.70;;;9.60;99.90;;;;;;5070869;28;20044;-80
2023/04/26 09:00:34;;;;;;;4.70;1.73;;;9.80;99.90;;;;;;5071661;28;20431;-83
2023/04/26 09:03:00;;;;;;;6.85;1.70;;;9.70;99.90;;;;;;5073095;28;20396;-77
2023/04/26 09:05:26;;;;;;;5.47;1.88;;;9.90;99.90;;;;;;5073146;28;20049;-80
2023/04/26 09:07:56;;;;;;;3.75;1.80;;;10.00;99.90;;;;;;5073127;28;20119;-79
2023/04/26 09:10:21;;;;;;;3.90;1.67;;;10.10;99.90;;;;;;5072652;28;20056;-79
2023/04/26 09:12:56;;;;;;;6.18;1.80;;;10.30;99.90;;;;;;5073042;28;20380;-82
2023/04/26 09:15:23;;;;;;;3.15;1.80;;;10.40;99.90;;;;;;5073370;28;20442;-80
2023/04/26 09:17:50;;;;;;;6.15;1.80;;;10.50;99.90;;;;;;5072308;28;20495;-80
2023/04/26 09:20:26;;;;;;;4.75;1.90;;;10.50;99.90;;;;;;5072837;28;20048;-81
2023/04/26 09:23:02;;;;;;;6.90;1.65;;;10.50;99.90;;;;;;5070940;28;20396;-80
2023/04/26 09:25:29;;;;;;;4.53;1.63;;;10.20;99.90;;;;;;5072767;28;20041;-82
2023/04/26 09:27:56;;;;;;;2.47;1.48;;;10.00;99.90;;;;;;5072827;28;20399;-80
2023/04/26 09:30:22;;;;;;;7.75;1.73;;;10.40;99.90;;;;;;5072495;28;20450;-80
2023/04/26 09:32:48;;;;;;;3.87;1.70;;;9.50;99.90;;;;;;5071959;28;20040;-81
2023/04/26 09:35:31;;;;;;;6.35;1.75;;;9.40;99.90;;;;;;5075654;28;20387;-81
2023/04/26 09:38:17;;;;;;;3.63;1.70;;;9.30;99.90;;;;;;5076399;28;20048;-81
2023/04/26 09:40:48;;;;;;;5.03;1.80;;;9.20;99.90;;;;;;5076271;28;20049;-80
2023/04/26 09:43:17;;;;;;;3.40;1.70;;;9.30;99.90;;;;;;5076219;28;20128;-81
2023/04/26 09:45:57;;;;;;;4.20;1.83;;;9.30;99.90;;;;;;5075287;28;20055;-81
2023/04/26 09:48:29;;;;;;;4.75;1.75;;;9.30;99.90;;;;;;5076177;28;20040;-81
2023/04/26 09:51:01;;;;;;;2.80;1.85;;;9.90;99.90;;;;;;5074654;28;20061;-82
2023/04/26 09:53:33;;;;;;;5.55;1.80;;;9.20;99.90;;;;;;5075946;28;20435;-79
2023/04/26 09:56:11;;;;;;;4.70;1.60;;;9.40;99.90;;;;;;5076075;28;20045;-80
2023/04/26 09:58:45;;;;;;;4.05;1.60;;;9.30;99.90;;;;;;5075559;28;20476;-81
2023/04/26 10:01:13;;;;;;;3.65;1.80;;;9.90;99.90;;;;;;5075644;28;20445;-81
2023/04/26 10:03:40;;;;;;;2.97;1.83;;;9.30;99.90;;;;;;5075540;28;20045;-80
2023/04/26 10:06:06;;;;;;;3.83;1.92;;;9.50;99.90;;;;;;5075755;28;20052;-80
2023/04/26 10:08:32;;;;;;;4.25;1.60;;;9.90;99.90;;;;;;5075353;28;20397;-79
2023/04/26 10:10:58;;;;;;;5.63;1.80;;;10.10;99.90;;;;;;5075619;28;20504;-80
2023/04/26 10:13:24;;;;;;;5.00;2.08;;;10.40;99.90;;;;;;5075487;28;20056;-79
2023/04/26 10:15:52;;;;;;;5.07;1.70;;;10.70;99.90;;;;;;5075696;28;20044;-80
2023/04/26 10:18:18;;;;;;;3.90;1.85;;;10.90;99.90;;;;;;5075174;28;20041;-80
2023/04/26 10:20:47;;;;;;;4.60;2.10;;;11.10;99.90;;;;;;5057720;28;20477;-80
2023/04/26 10:23:20;;;;;;;8.05;2.28;;;11.50;99.90;;;;;;5075214;28;20044;-80
2023/04/26 10:25:47;;;;;;;6.47;2.45;;;11.50;99.90;;;;;;5074315;28;20048;-80
2023/04/26 10:28:13;;;;;;;7.22;2.33;;;12.00;99.90;;;;;;5075369;28;20080;-80
2023/04/26 10:31:07;;;;;;;4.75;2.25;;;12.40;99.90;;;;;;5075316;28;20076;-79
2023/04/26 10:33:33;;;;;;;6.28;2.10;;;11.80;99.90;;;;;;5074591;28;20052;-79
2023/04/26 10:36:08;;;;;;;5.22;1.90;;;11.80;99.90;;;;;;5074378;28;20045;-79
2023/04/26 10:38:36;;;;;;;3.95;1.70;;;12.10;99.90;;;;;;5075076;28;20090;-80
2023/04/26 10:41:36;;;;;;;7.60;2.17;;;12.20;99.90;;;;;;5075203;28;20398;-80
2023/04/26 10:44:44;;;;;;;5.35;1.83;;;12.20;99.90;;;;;;5075157;28;20041;-79
2023/04/26 10:47:25;;;;;;;6.53;1.90;;;12.00;99.90;;;;;;5074203;28;20382;-80
2023/04/26 10:49:50;;;;;;;3.20;1.70;;;11.70;99.90;;;;;;5074538;28;20523;-80
2023/04/26 10:52:21;;;;;;;2.20;1.40;;;11.60;99.90;;;;;;5074687;28;20135;-79
2023/04/26 10:54:57;;;;;;;4.00;1.60;;;11.40;99.90;;;;;;5074848;28;20397;-80
2023/04/26 10:57:42;;;;;;;5.70;1.20;;;11.20;99.90;;;;;;5074421;28;20545;-80
2023/04/26 11:00:19;;;;;;;2.97;1.38;;;11.10;99.90;;;;;;5074645;28;20488;-80
2023/04/26 11:02:53;;;;;;;4.50;1.63;;;10.90;99.90;;;;;;5074747;28;20076;-80
2023/04/26 11:05:43;;;;;;;3.28;1.20;;;10.80;99.90;;;;;;5074459;28;20130;-79
2023/04/26 11:08:30;;;;;;;3.28;1.60;;;10.90;99.90;;;;;;5074609;28;20162;-80
2023/04/26 11:11:02;;;;;;;4.00;1.75;;;10.80;99.90;;;;;;5074220;28;20480;-80
2023/04/26 11:13:41;;;;;;;6.35;2.53;;;10.80;99.90;;;;;;5074436;28;20040;-80
2023/04/26 11:16:15;;;;;;;3.83;1.63;;;11.30;99.90;;;;;;5074232;28;20045;-79
2023/04/26 11:18:42;;;;;;;6.35;2.45;;;10.40;99.90;;;;;;5074406;28;20079;-80
2023/04/26 11:21:09;;;;;;;5.90;1.80;;;10.00;99.90;;;;;;5072762;28;20052;-84
2023/04/26 11:23:35;;;;;;;4.68;1.60;;;10.00;99.90;;;;;;5077189;28;20103;-86
2023/04/26 11:26:07;;;;;;;4.00;1.70;;;9.60;99.90;;;;;;5077433;28;20047;-85
2023/04/26 11:28:38;;;;;;;4.95;1.80;;;9.20;99.90;;;;;;5074450;28;20463;-90
2023/04/26 11:31:06;;;;;;;3.60;1.70;;;9.30;99.90;;;;;;5056714;28;20078;-82
2023/04/26 11:33:33;;;;;;;2.45;1.58;;;10.10;99.90;;;;;;5073112;28;20048;-80
2023/04/26 11:35:59;;;;;;;5.22;2.08;;;8.90;99.90;;;;;;5073906;28;20044;-83
2023/04/26 11:38:26;;;;;;;3.50;1.65;;;8.90;99.90;;;;;;5073954;28;20047;-80
2023/04/26 11:41:02;;;;;;;4.70;1.73;;;8.80;99.90;;;;;;5072802;28;20086;-87
2023/04/26 11:43:31;;;;;;;3.92;2.00;;;8.70;99.90;;;;;;5073948;28;20040;-82
2023/04/26 11:46:02;;;;;;;3.47;1.80;;;8.70;99.90;;;;;;5074092;28;20070;-82
2023/04/26 11:48:29;;;;;;;2.50;1.80;;;8.60;99.90;;;;;;5073769;28;20086;-81
2023/04/26 11:50:58;;;;;;;2.90;1.60;;;8.60;99.90;;;;;;5072752;28;20420;-87
2023/04/26 11:53:37;;;;;;;3.45;1.67;;;8.70;99.90;;;;;;5072777;28;20048;-86
2023/04/26 11:56:04;;;;;;;3.83;2.05;;;8.80;99.90;;;;;;5074173;28;20052;-78
2023/04/26 11:58:30;;;;;;;5.90;2.10;;;8.90;99.90;;;;;;5072796;28;20045;-79
2023/04/26 12:01:00;;;;;;;5.72;1.75;;;9.00;99.90;;;;;;5073588;28;20147;-78
2023/04/26 12:03:36;;;;;;;9.10;2.00;;;9.20;99.90;;;;;;5074241;28;20048;-80
2023/04/26 12:06:05;;;;;;;2.72;1.70;;;9.40;99.90;;;;;;5073956;28;20120;-78
2023/04/26 12:08:32;;;;;;;3.90;2.03;;;9.70;99.90;;;;;;5073698;28;20120;-78
2023/04/26 12:11:01;;;;;;;9.95;1.63;;;9.90;99.90;;;;;;5073686;28;20041;-78
2023/04/26 12:13:29;;;;;;;3.15;1.55;;;10.10;99.90;;;;;;5073120;28;20044;-79
2023/04/26 12:15:55;;;;;;;4.43;1.40;;;10.40;99.90;;;;;;5073205;28;20496;-78
2023/04/26 12:18:22;;;;;;;7.03;3.20;;;10.50;99.90;;;;;;5073262;28;20076;-78
2023/04/26 12:20:48;;;;;;;2.08;1.48;;;10.80;99.90;;;;;;5073504;28;20064;-79
2023/04/26 12:23:16;;;;;;;3.90;1.30;;;10.90;99.90;;;;;;5073245;28;20041;-78
2023/04/26 12:25:52;;;;;;;5.43;1.80;;;11.00;99.90;;;;;;5072040;28;20404;-79
2023/04/26 12:28:18;;;;;;;8.15;2.80;;;11.10;99.90;;;;;;5073604;28;20044;-78
2023/04/26 12:30:43;;;;;;;3.92;1.58;;;11.20;99.90;;;;;;5073290;28;20046;-78
2023/04/26 12:33:10;;;;;;;3.25;1.20;;;11.80;99.90;;;;;;5073219;28;20063;-77
2023/04/26 12:35:35;;;;;;;5.13;1.63;;;11.70;99.90;;;;;;5073194;28;20098;-77
2023/04/26 12:38:01;;;;;;;4.43;1.92;;;11.90;99.90;;;;;;5073265;28;20427;-77
2023/04/26 12:40:28;;;;;;;2.78;1.52;;;11.80;99.90;;;;;;5073259;28;20127;-80
2023/04/26 12:42:54;;;;;;;5.80;1.90;;;11.60;99.90;;;;;;5073589;28;20105;-80
2023/04/26 12:45:21;;;;;;;2.88;1.55;;;11.80;99.90;;;;;;5073297;28;20127;-80
2023/04/26 12:47:47;;;;;;;;;;;11.50;99.90;;;;;;5072531;28;20485;-81
2023/04/26 12:50:14;;;;;;;2.72;1.70;;;11.10;99.90;;;;;;5073002;28;20007;-81
2023/04/26 12:52:42;;;;;;;3.80;1.60;;;11.00;99.90;;;;;;5072208;28;20048;-83
2023/04/26 12:55:09;;;;;;;5.30;1.40;;;11.00;99.90;;;;;;5072849;28;20053;-81
2023/04/26 12:57:36;;;;;;;4.15;1.65;;;10.90;99.90;;;;;;5038872;28;20093;-85